sensor_id;sensor_type;location;lat;lon;timestamp;temperature;humidity
63047;DHT22;62025;39.238;9.126;2023-07-13T00:00:30;28.80;69.00
63047;DHT22;62025;39.238;9.126;2023-07-13T00:02:57;28.70;69.20
63047;DHT22;62025;39.238;9.126;2023-07-13T00:05:24;28.70;69.40
63047;DHT22;62025;39.238;9.126;2023-07-13T00:07:50;28.60;69.70
63047;DHT22;62025;39.238;9.126;2023-07-13T00:10:17;28.60;69.70
63047;DHT22;62025;39.238;9.126;2023-07-13T00:12:44;28.60;69.70
63047;DHT22;62025;39.238;9.126;2023-07-13T00:15:15;28.70;69.70
63047;DHT22;62025;39.238;9.126;2023-07-13T00:17:50;28.60;69.90
63047;DHT22;62025;39.238;9.126;2023-07-13T00:20:17;28.60;70.00
63047;DHT22;62025;39.238;9.126;2023-07-13T00:22:43;28.60;70.40
63047;DHT22;62025;39.238;9.126;2023-07-13T00:25:12;28.50;70.70
63047;DHT22;62025;39.238;9.126;2023-07-13T00:27:38;28.60;71.00
63047;DHT22;62025;39.238;9.126;2023-07-13T00:30:05;28.50;71.20
63047;DHT22;62025;39.238;9.126;2023-07-13T00:32:31;28.50;71.30
63047;DHT22;62025;39.238;9.126;2023-07-13T00:34:58;28.50;71.50
63047;DHT22;62025;39.238;9.126;2023-07-13T00:37:25;28.40;72.00
63047;DHT22;62025;39.238;9.126;2023-07-13T00:39:52;28.40;72.20
63047;DHT22;62025;39.238;9.126;2023-07-13T00:42:18;28.50;72.20
63047;DHT22;62025;39.238;9.126;2023-07-13T00:47:50;28.40;72.50
63047;DHT22;62025;39.238;9.126;2023-07-13T00:50:18;28.40;72.90
63047;DHT22;62025;39.238;9.126;2023-07-13T00:52:49;28.40;73.10
63047;DHT22;62025;39.238;9.126;2023-07-13T00:55:20;28.40;73.30
63047;DHT22;62025;39.238;9.126;2023-07-13T00:57:48;28.40;72.70
63047;DHT22;62025;39.238;9.126;2023-07-13T01:00:14;28.30;72.20
63047;DHT22;62025;39.238;9.126;2023-07-13T01:02:44;28.40;71.90
63047;DHT22;62025;39.238;9.126;2023-07-13T01:05:13;28.40;71.60
63047;DHT22;62025;39.238;9.126;2023-07-13T01:07:44;28.40;71.60
63047;DHT22;62025;39.238;9.126;2023-07-13T01:10:14;28.40;71.30
63047;DHT22;62025;39.238;9.126;2023-07-13T01:12:40;28.40;71.20
63047;DHT22;62025;39.238;9.126;2023-07-13T01:15:36;28.40;71.20
63047;DHT22;62025;39.238;9.126;2023-07-13T01:18:05;28.30;71.40
63047;DHT22;62025;39.238;9.126;2023-07-13T01:20:32;28.20;71.60
63047;DHT22;62025;39.238;9.126;2023-07-13T01:23:10;28.30;71.00
63047;DHT22;62025;39.238;9.126;2023-07-13T01:25:38;28.20;70.60
63047;DHT22;62025;39.238;9.126;2023-07-13T01:28:06;28.30;70.40
63047;DHT22;62025;39.238;9.126;2023-07-13T01:30:35;28.30;70.20
63047;DHT22;62025;39.238;9.126;2023-07-13T01:33:03;28.30;69.80
63047;DHT22;62025;39.238;9.126;2023-07-13T01:35:29;28.40;69.70
63047;DHT22;62025;39.238;9.126;2023-07-13T01:37:55;28.40;69.80
63047;DHT22;62025;39.238;9.126;2023-07-13T01:40:22;28.30;69.60
63047;DHT22;62025;39.238;9.126;2023-07-13T01:42:48;28.40;69.50
63047;DHT22;62025;39.238;9.126;2023-07-13T01:45:14;28.40;69.20
63047;DHT22;62025;39.238;9.126;2023-07-13T01:47:40;28.40;69.00
63047;DHT22;62025;39.238;9.126;2023-07-13T01:50:06;28.40;68.80
63047;DHT22;62025;39.238;9.126;2023-07-13T01:52:32;28.40;68.60
63047;DHT22;62025;39.238;9.126;2023-07-13T01:54:58;28.40;68.40
63047;DHT22;62025;39.238;9.126;2023-07-13T01:57:24;28.40;68.50
63047;DHT22;62025;39.238;9.126;2023-07-13T01:59:51;28.40;68.30
63047;DHT22;62025;39.238;9.126;2023-07-13T02:02:16;28.40;67.80
63047;DHT22;62025;39.238;9.126;2023-07-13T02:04:42;28.50;68.00
63047;DHT22;62025;39.238;9.126;2023-07-13T02:07:09;28.50;68.10
63047;DHT22;62025;39.238;9.126;2023-07-13T02:09:35;28.40;68.10
63047;DHT22;62025;39.238;9.126;2023-07-13T02:12:01;28.50;68.30
63047;DHT22;62025;39.238;9.126;2023-07-13T02:14:32;28.40;68.50
63047;DHT22;62025;39.238;9.126;2023-07-13T02:16:58;28.40;68.70
63047;DHT22;62025;39.238;9.126;2023-07-13T02:19:24;28.40;68.90
63047;DHT22;62025;39.238;9.126;2023-07-13T02:21:50;28.40;69.00
63047;DHT22;62025;39.238;9.126;2023-07-13T02:24:16;28.40;69.20
63047;DHT22;62025;39.238;9.126;2023-07-13T02:26:44;28.50;69.30
63047;DHT22;62025;39.238;9.126;2023-07-13T02:29:10;28.50;69.30
63047;DHT22;62025;39.238;9.126;2023-07-13T02:31:36;28.50;69.40
63047;DHT22;62025;39.238;9.126;2023-07-13T02:34:03;28.40;69.30
63047;DHT22;62025;39.238;9.126;2023-07-13T02:36:30;28.50;69.10
63047;DHT22;62025;39.238;9.126;2023-07-13T02:39:00;28.40;68.90
63047;DHT22;62025;39.238;9.126;2023-07-13T02:41:27;28.40;68.80
63047;DHT22;62025;39.238;9.126;2023-07-13T02:43:53;28.40;69.20
63047;DHT22;62025;39.238;9.126;2023-07-13T02:46:19;28.40;69.20
63047;DHT22;62025;39.238;9.126;2023-07-13T02:48:45;28.30;69.30
63047;DHT22;62025;39.238;9.126;2023-07-13T02:51:13;28.20;69.20
63047;DHT22;62025;39.238;9.126;2023-07-13T02:53:39;28.20;69.20
63047;DHT22;62025;39.238;9.126;2023-07-13T02:56:05;28.30;69.10
63047;DHT22;62025;39.238;9.126;2023-07-13T02:58:31;28.20;69.10
63047;DHT22;62025;39.238;9.126;2023-07-13T03:00:57;28.20;69.20
63047;DHT22;62025;39.238;9.126;2023-07-13T03:03:24;28.10;69.40
63047;DHT22;62025;39.238;9.126;2023-07-13T03:05:59;28.20;69.30
63047;DHT22;62025;39.238;9.126;2023-07-13T03:08:29;28.20;69.40
63047;DHT22;62025;39.238;9.126;2023-07-13T03:11:01;28.20;69.30
63047;DHT22;62025;39.238;9.126;2023-07-13T03:13:34;28.20;69.30
63047;DHT22;62025;39.238;9.126;2023-07-13T03:16:03;28.20;69.30
63047;DHT22;62025;39.238;9.126;2023-07-13T03:18:30;28.20;69.40
63047;DHT22;62025;39.238;9.126;2023-07-13T03:21:00;28.20;69.40
63047;DHT22;62025;39.238;9.126;2023-07-13T03:23:26;28.10;69.80
63047;DHT22;62025;39.238;9.126;2023-07-13T03:26:08;28.20;70.10
63047;DHT22;62025;39.238;9.126;2023-07-13T03:28:40;28.10;70.40
63047;DHT22;62025;39.238;9.126;2023-07-13T03:31:17;28.10;70.60
63047;DHT22;62025;39.238;9.126;2023-07-13T03:33:45;28.20;70.70
63047;DHT22;62025;39.238;9.126;2023-07-13T03:36:18;28.10;70.70
63047;DHT22;62025;39.238;9.126;2023-07-13T03:38:51;28.10;70.80
63047;DHT22;62025;39.238;9.126;2023-07-13T03:41:22;28.10;70.80
63047;DHT22;62025;39.238;9.126;2023-07-13T03:43:50;28.10;70.90
63047;DHT22;62025;39.238;9.126;2023-07-13T03:46:20;28.20;71.00
63047;DHT22;62025;39.238;9.126;2023-07-13T03:48:47;28.10;71.50
63047;DHT22;62025;39.238;9.126;2023-07-13T03:51:14;28.10;72.00
63047;DHT22;62025;39.238;9.126;2023-07-13T03:53:42;28.10;72.20
63047;DHT22;62025;39.238;9.126;2023-07-13T03:56:11;28.10;72.40
63047;DHT22;62025;39.238;9.126;2023-07-13T03:58:40;28.10;72.60
63047;DHT22;62025;39.238;9.126;2023-07-13T04:01:15;28.10;72.80
63047;DHT22;62025;39.238;9.126;2023-07-13T04:03:42;28.10;73.10
63047;DHT22;62025;39.238;9.126;2023-07-13T04:06:19;28.10;73.20
63047;DHT22;62025;39.238;9.126;2023-07-13T04:08:56;28.10;73.20
63047;DHT22;62025;39.238;9.126;2023-07-13T04:11:26;28.10;73.00
63047;DHT22;62025;39.238;9.126;2023-07-13T04:13:54;28.10;72.90
63047;DHT22;62025;39.238;9.126;2023-07-13T04:16:21;28.00;73.00
63047;DHT22;62025;39.238;9.126;2023-07-13T04:18:48;28.00;73.10
63047;DHT22;62025;39.238;9.126;2023-07-13T04:21:15;28.00;73.10
63047;DHT22;62025;39.238;9.126;2023-07-13T04:23:42;28.00;73.30
63047;DHT22;62025;39.238;9.126;2023-07-13T04:26:08;28.00;73.40
63047;DHT22;62025;39.238;9.126;2023-07-13T04:28:34;28.00;73.40
63047;DHT22;62025;39.238;9.126;2023-07-13T04:31:01;28.00;73.50
63047;DHT22;62025;39.238;9.126;2023-07-13T04:33:27;28.10;73.70
63047;DHT22;62025;39.238;9.126;2023-07-13T04:35:54;28.00;73.80
63047;DHT22;62025;39.238;9.126;2023-07-13T04:38:27;28.00;73.40
63047;DHT22;62025;39.238;9.126;2023-07-13T04:40:59;28.00;73.10
63047;DHT22;62025;39.238;9.126;2023-07-13T04:43:27;28.00;72.60
63047;DHT22;62025;39.238;9.126;2023-07-13T04:45:54;28.00;72.10
63047;DHT22;62025;39.238;9.126;2023-07-13T04:48:21;28.00;71.80
63047;DHT22;62025;39.238;9.126;2023-07-13T04:50:53;28.00;71.70
63047;DHT22;62025;39.238;9.126;2023-07-13T04:53:20;28.00;71.80
63047;DHT22;62025;39.238;9.126;2023-07-13T04:55:46;28.00;71.80
63047;DHT22;62025;39.238;9.126;2023-07-13T04:58:12;28.00;71.80
63047;DHT22;62025;39.238;9.126;2023-07-13T05:00:39;28.00;72.00
63047;DHT22;62025;39.238;9.126;2023-07-13T05:03:05;28.10;72.20
63047;DHT22;62025;39.238;9.126;2023-07-13T05:05:31;28.10;72.30
63047;DHT22;62025;39.238;9.126;2023-07-13T05:07:57;28.10;72.40
63047;DHT22;62025;39.238;9.126;2023-07-13T05:10:23;28.10;72.60
63047;DHT22;62025;39.238;9.126;2023-07-13T05:12:50;28.20;72.50
63047;DHT22;62025;39.238;9.126;2023-07-13T05:15:16;28.30;72.20
63047;DHT22;62025;39.238;9.126;2023-07-13T05:17:47;28.20;72.10
63047;DHT22;62025;39.238;9.126;2023-07-13T05:20:14;28.30;71.70
63047;DHT22;62025;39.238;9.126;2023-07-13T05:22:41;28.30;71.20
63047;DHT22;62025;39.238;9.126;2023-07-13T05:25:08;28.30;70.30
63047;DHT22;62025;39.238;9.126;2023-07-13T05:27:35;28.40;69.50
63047;DHT22;62025;39.238;9.126;2023-07-13T05:30:02;28.40;68.70
63047;DHT22;62025;39.238;9.126;2023-07-13T05:32:29;28.40;68.30
63047;DHT22;62025;39.238;9.126;2023-07-13T05:34:55;28.50;68.10
63047;DHT22;62025;39.238;9.126;2023-07-13T05:37:21;28.50;67.90
63047;DHT22;62025;39.238;9.126;2023-07-13T05:39:47;28.60;67.70
63047;DHT22;62025;39.238;9.126;2023-07-13T05:42:13;28.60;67.70
63047;DHT22;62025;39.238;9.126;2023-07-13T05:44:39;28.70;67.50
63047;DHT22;62025;39.238;9.126;2023-07-13T05:47:06;28.70;67.20
63047;DHT22;62025;39.238;9.126;2023-07-13T05:49:32;28.80;67.30
63047;DHT22;62025;39.238;9.126;2023-07-13T05:51:58;28.90;67.30
63047;DHT22;62025;39.238;9.126;2023-07-13T05:54:24;28.90;67.10
63047;DHT22;62025;39.238;9.126;2023-07-13T05:56:50;28.90;66.50
63047;DHT22;62025;39.238;9.126;2023-07-13T05:59:17;29.00;66.30
63047;DHT22;62025;39.238;9.126;2023-07-13T06:01:43;29.10;65.90
63047;DHT22;62025;39.238;9.126;2023-07-13T06:04:09;29.20;65.60
63047;DHT22;62025;39.238;9.126;2023-07-13T06:06:35;29.30;65.10
63047;DHT22;62025;39.238;9.126;2023-07-13T06:09:01;29.40;65.00
63047;DHT22;62025;39.238;9.126;2023-07-13T06:11:27;29.40;64.50
63047;DHT22;62025;39.238;9.126;2023-07-13T06:13:56;29.50;64.20
63047;DHT22;62025;39.238;9.126;2023-07-13T06:16:22;29.60;63.10
63047;DHT22;62025;39.238;9.126;2023-07-13T06:18:48;29.60;62.80
63047;DHT22;62025;39.238;9.126;2023-07-13T06:21:19;29.70;62.50
63047;DHT22;62025;39.238;9.126;2023-07-13T06:23:47;29.80;61.50
63047;DHT22;62025;39.238;9.126;2023-07-13T06:26:14;29.90;60.80
63047;DHT22;62025;39.238;9.126;2023-07-13T06:28:41;30.10;60.20
63047;DHT22;62025;39.238;9.126;2023-07-13T06:31:09;30.20;59.70
63047;DHT22;62025;39.238;9.126;2023-07-13T06:33:36;30.20;59.30
63047;DHT22;62025;39.238;9.126;2023-07-13T06:36:04;30.40;58.60
63047;DHT22;62025;39.238;9.126;2023-07-13T06:38:30;30.50;58.10
63047;DHT22;62025;39.238;9.126;2023-07-13T06:40:56;30.50;57.70
63047;DHT22;62025;39.238;9.126;2023-07-13T06:43:23;30.60;57.10
63047;DHT22;62025;39.238;9.126;2023-07-13T06:45:51;30.80;56.60
63047;DHT22;62025;39.238;9.126;2023-07-13T06:48:19;30.90;56.30
63047;DHT22;62025;39.238;9.126;2023-07-13T06:50:47;31.00;55.90
63047;DHT22;62025;39.238;9.126;2023-07-13T06:53:15;31.10;55.30
63047;DHT22;62025;39.238;9.126;2023-07-13T06:55:43;31.30;54.50
63047;DHT22;62025;39.238;9.126;2023-07-13T06:58:10;31.50;53.70
63047;DHT22;62025;39.238;9.126;2023-07-13T07:00:36;31.70;53.00
63047;DHT22;62025;39.238;9.126;2023-07-13T07:03:02;31.60;52.90
63047;DHT22;62025;39.238;9.126;2023-07-13T07:05:29;31.60;52.60
63047;DHT22;62025;39.238;9.126;2023-07-13T07:07:55;31.70;51.80
63047;DHT22;62025;39.238;9.126;2023-07-13T07:10:21;31.90;51.30
63047;DHT22;62025;39.238;9.126;2023-07-13T07:12:47;32.00;50.70
63047;DHT22;62025;39.238;9.126;2023-07-13T07:15:13;32.10;49.80
63047;DHT22;62025;39.238;9.126;2023-07-13T07:17:39;32.20;49.40
63047;DHT22;62025;39.238;9.126;2023-07-13T07:20:06;32.40;49.80
63047;DHT22;62025;39.238;9.126;2023-07-13T07:22:32;32.40;49.40
63047;DHT22;62025;39.238;9.126;2023-07-13T07:25:00;32.40;48.90
63047;DHT22;62025;39.238;9.126;2023-07-13T07:27:26;32.40;48.70
63047;DHT22;62025;39.238;9.126;2023-07-13T07:29:53;32.40;48.30
63047;DHT22;62025;39.238;9.126;2023-07-13T07:32:19;32.70;47.70
63047;DHT22;62025;39.238;9.126;2023-07-13T07:34:46;32.70;47.50
63047;DHT22;62025;39.238;9.126;2023-07-13T07:37:13;33.00;47.60
63047;DHT22;62025;39.238;9.126;2023-07-13T07:39:40;33.00;48.00
63047;DHT22;62025;39.238;9.126;2023-07-13T07:42:06;33.20;47.60
63047;DHT22;62025;39.238;9.126;2023-07-13T07:44:33;33.10;47.60
63047;DHT22;62025;39.238;9.126;2023-07-13T07:46:59;33.30;47.40
63047;DHT22;62025;39.238;9.126;2023-07-13T07:49:26;33.40;47.30
63047;DHT22;62025;39.238;9.126;2023-07-13T07:51:52;33.30;47.00
63047;DHT22;62025;39.238;9.126;2023-07-13T07:54:18;33.40;46.60
63047;DHT22;62025;39.238;9.126;2023-07-13T07:56:44;33.50;46.00
63047;DHT22;62025;39.238;9.126;2023-07-13T07:59:10;33.70;44.70
63047;DHT22;62025;39.238;9.126;2023-07-13T08:01:36;33.70;44.30
63047;DHT22;62025;39.238;9.126;2023-07-13T08:04:02;33.90;45.00
63047;DHT22;62025;39.238;9.126;2023-07-13T08:06:29;33.70;46.10
63047;DHT22;62025;39.238;9.126;2023-07-13T08:08:55;33.40;46.70
63047;DHT22;62025;39.238;9.126;2023-07-13T08:11:22;33.30;47.00
63047;DHT22;62025;39.238;9.126;2023-07-13T08:13:49;33.50;46.90
63047;DHT22;62025;39.238;9.126;2023-07-13T08:16:15;33.50;46.80
63047;DHT22;62025;39.238;9.126;2023-07-13T08:18:41;33.40;46.90
63047;DHT22;62025;39.238;9.126;2023-07-13T08:21:08;33.40;47.00
63047;DHT22;62025;39.238;9.126;2023-07-13T08:23:35;33.50;47.10
63047;DHT22;62025;39.238;9.126;2023-07-13T08:26:02;34.00;46.40
63047;DHT22;62025;39.238;9.126;2023-07-13T08:28:28;34.20;45.80
63047;DHT22;62025;39.238;9.126;2023-07-13T08:30:54;34.20;45.80
63047;DHT22;62025;39.238;9.126;2023-07-13T08:33:22;34.40;45.50
63047;DHT22;62025;39.238;9.126;2023-07-13T08:35:51;34.30;45.90
63047;DHT22;62025;39.238;9.126;2023-07-13T08:38:17;34.20;45.80
63047;DHT22;62025;39.238;9.126;2023-07-13T08:40:45;34.20;45.60
63047;DHT22;62025;39.238;9.126;2023-07-13T08:43:20;34.40;45.40
63047;DHT22;62025;39.238;9.126;2023-07-13T08:45:59;34.40;45.70
63047;DHT22;62025;39.238;9.126;2023-07-13T08:48:38;34.20;46.10
63047;DHT22;62025;39.238;9.126;2023-07-13T08:51:20;34.40;46.20
63047;DHT22;62025;39.238;9.126;2023-07-13T08:53:57;34.40;46.80
63047;DHT22;62025;39.238;9.126;2023-07-13T08:56:28;34.60;48.20
63047;DHT22;62025;39.238;9.126;2023-07-13T08:59:01;34.80;47.90
63047;DHT22;62025;39.238;9.126;2023-07-13T09:07:39;34.90;47.80
63047;DHT22;62025;39.238;9.126;2023-07-13T09:10:27;35.00;47.70
63047;DHT22;62025;39.238;9.126;2023-07-13T09:13:28;35.50;46.90
63047;DHT22;62025;39.238;9.126;2023-07-13T09:15:59;35.60;46.40
63047;DHT22;62025;39.238;9.126;2023-07-13T09:18:33;35.70;46.30
63047;DHT22;62025;39.238;9.126;2023-07-13T09:23:36;36.00;45.40
63047;DHT22;62025;39.238;9.126;2023-07-13T09:26:32;35.70;46.50
63047;DHT22;62025;39.238;9.126;2023-07-13T09:29:11;34.90;48.00
63047;DHT22;62025;39.238;9.126;2023-07-13T09:31:53;34.90;49.30
63047;DHT22;62025;39.238;9.126;2023-07-13T09:34:21;34.60;49.30
63047;DHT22;62025;39.238;9.126;2023-07-13T09:36:47;34.60;49.50
63047;DHT22;62025;39.238;9.126;2023-07-13T09:39:28;34.30;50.20
63047;DHT22;62025;39.238;9.126;2023-07-13T09:44:37;34.10;50.90
63047;DHT22;62025;39.238;9.126;2023-07-13T09:47:16;34.40;50.80
63047;DHT22;62025;39.238;9.126;2023-07-13T09:49:44;34.30;50.70
63047;DHT22;62025;39.238;9.126;2023-07-13T09:52:15;34.20;50.90
63047;DHT22;62025;39.238;9.126;2023-07-13T09:54:48;34.20;50.80
63047;DHT22;62025;39.238;9.126;2023-07-13T09:57:17;34.30;51.00
63047;DHT22;62025;39.238;9.126;2023-07-13T09:59:47;34.20;51.30
63047;DHT22;62025;39.238;9.126;2023-07-13T10:02:35;34.30;50.90
63047;DHT22;62025;39.238;9.126;2023-07-13T10:05:06;34.30;50.90
63047;DHT22;62025;39.238;9.126;2023-07-13T10:07:43;34.20;51.10
63047;DHT22;62025;39.238;9.126;2023-07-13T10:10:18;34.30;51.20
63047;DHT22;62025;39.238;9.126;2023-07-13T10:12:47;34.00;52.00
63047;DHT22;62025;39.238;9.126;2023-07-13T10:15:19;33.90;52.50
63047;DHT22;62025;39.238;9.126;2023-07-13T10:17:49;34.00;52.50
63047;DHT22;62025;39.238;9.126;2023-07-13T10:20:17;34.10;52.30
63047;DHT22;62025;39.238;9.126;2023-07-13T10:23:02;34.20;52.20
63047;DHT22;62025;39.238;9.126;2023-07-13T10:25:34;34.10;52.80
63047;DHT22;62025;39.238;9.126;2023-07-13T10:30:41;34.00;53.50
63047;DHT22;62025;39.238;9.126;2023-07-13T10:33:11;34.00;54.60
63047;DHT22;62025;39.238;9.126;2023-07-13T10:35:42;34.00;54.90
63047;DHT22;62025;39.238;9.126;2023-07-13T10:38:15;34.10;54.80
63047;DHT22;62025;39.238;9.126;2023-07-13T10:43:51;34.00;54.90
63047;DHT22;62025;39.238;9.126;2023-07-13T10:46:20;34.00;55.10
63047;DHT22;62025;39.238;9.126;2023-07-13T10:48:52;34.10;55.20
63047;DHT22;62025;39.238;9.126;2023-07-13T10:51:22;34.20;54.80
63047;DHT22;62025;39.238;9.126;2023-07-13T10:54:22;34.10;55.40
63047;DHT22;62025;39.238;9.126;2023-07-13T10:59:38;34.00;55.50
63047;DHT22;62025;39.238;9.126;2023-07-13T11:04:47;34.00;55.90
63047;DHT22;62025;39.238;9.126;2023-07-13T11:07:23;34.00;55.70
63047;DHT22;62025;39.238;9.126;2023-07-13T11:09:56;34.00;55.50
63047;DHT22;62025;39.238;9.126;2023-07-13T11:12:48;33.90;56.40
63047;DHT22;62025;39.238;9.126;2023-07-13T11:15:30;33.90;57.30
63047;DHT22;62025;39.238;9.126;2023-07-13T11:18:02;33.90;56.40
63047;DHT22;62025;39.238;9.126;2023-07-13T11:20:37;33.90;57.60
63047;DHT22;62025;39.238;9.126;2023-07-13T11:25:44;33.70;58.80
63047;DHT22;62025;39.238;9.126;2023-07-13T11:33:24;33.20;60.80
63047;DHT22;62025;39.238;9.126;2023-07-13T11:36:06;33.30;61.50
63047;DHT22;62025;39.238;9.126;2023-07-13T11:38:40;33.20;61.40
63047;DHT22;62025;39.238;9.126;2023-07-13T11:41:16;33.10;61.40
63047;DHT22;62025;39.238;9.126;2023-07-13T11:43:45;33.00;61.90
63047;DHT22;62025;39.238;9.126;2023-07-13T11:46:29;33.00;62.70
63047;DHT22;62025;39.238;9.126;2023-07-13T11:48:55;33.00;63.00
63047;DHT22;62025;39.238;9.126;2023-07-13T11:51:28;33.00;63.40
63047;DHT22;62025;39.238;9.126;2023-07-13T11:54:02;32.80;63.50
63047;DHT22;62025;39.238;9.126;2023-07-13T11:56:30;32.70;63.00
63047;DHT22;62025;39.238;9.126;2023-07-13T11:59:05;32.80;63.80
63047;DHT22;62025;39.238;9.126;2023-07-13T12:01:36;33.00;63.80
63047;DHT22;62025;39.238;9.126;2023-07-13T12:07:17;33.00;62.90
63047;DHT22;62025;39.238;9.126;2023-07-13T12:09:44;32.90;64.20
63047;DHT22;62025;39.238;9.126;2023-07-13T12:12:17;32.70;64.80
63047;DHT22;62025;39.238;9.126;2023-07-13T12:14:44;32.70;65.30
63047;DHT22;62025;39.238;9.126;2023-07-13T12:17:19;32.70;65.60
63047;DHT22;62025;39.238;9.126;2023-07-13T12:19:56;32.80;65.70
63047;DHT22;62025;39.238;9.126;2023-07-13T12:22:23;32.70;65.20
63047;DHT22;62025;39.238;9.126;2023-07-13T12:24:49;32.70;65.90
63047;DHT22;62025;39.238;9.126;2023-07-13T12:27:25;32.80;65.10
63047;DHT22;62025;39.238;9.126;2023-07-13T12:29:58;32.70;65.40
63047;DHT22;62025;39.238;9.126;2023-07-13T12:32:27;32.90;65.90
63047;DHT22;62025;39.238;9.126;2023-07-13T12:35:17;33.00;64.80
63047;DHT22;62025;39.238;9.126;2023-07-13T12:37:46;32.80;66.40
63047;DHT22;62025;39.238;9.126;2023-07-13T12:40:32;32.80;66.70
63047;DHT22;62025;39.238;9.126;2023-07-13T12:42:59;32.60;67.20
63047;DHT22;62025;39.238;9.126;2023-07-13T12:45:27;32.50;66.70
63047;DHT22;62025;39.238;9.126;2023-07-13T12:47:55;32.50;67.20
63047;DHT22;62025;39.238;9.126;2023-07-13T12:50:42;32.40;67.00
63047;DHT22;62025;39.238;9.126;2023-07-13T12:53:15;32.50;66.00
63047;DHT22;62025;39.238;9.126;2023-07-13T12:55:50;32.40;66.70
63047;DHT22;62025;39.238;9.126;2023-07-13T12:58:38;32.40;66.20
63047;DHT22;62025;39.238;9.126;2023-07-13T13:01:08;32.30;66.30
63047;DHT22;62025;39.238;9.126;2023-07-13T13:03:38;32.30;66.70
63047;DHT22;62025;39.238;9.126;2023-07-13T13:06:24;32.40;64.90
63047;DHT22;62025;39.238;9.126;2023-07-13T13:08:55;32.30;65.60
63047;DHT22;62025;39.238;9.126;2023-07-13T13:11:25;32.30;65.80
63047;DHT22;62025;39.238;9.126;2023-07-13T13:13:52;32.40;66.30
63047;DHT22;62025;39.238;9.126;2023-07-13T13:18:55;32.40;65.80
63047;DHT22;62025;39.238;9.126;2023-07-13T13:21:24;32.40;66.40
63047;DHT22;62025;39.238;9.126;2023-07-13T13:23:50;32.30;66.30
63047;DHT22;62025;39.238;9.126;2023-07-13T13:26:18;32.10;65.90
63047;DHT22;62025;39.238;9.126;2023-07-13T13:28:46;32.30;64.40
63047;DHT22;62025;39.238;9.126;2023-07-13T13:31:16;32.40;64.50
63047;DHT22;62025;39.238;9.126;2023-07-13T13:33:43;32.40;64.00
63047;DHT22;62025;39.238;9.126;2023-07-13T13:36:22;32.60;63.00
63047;DHT22;62025;39.238;9.126;2023-07-13T13:38:49;32.80;62.20
63047;DHT22;62025;39.238;9.126;2023-07-13T13:41:15;32.70;61.50
63047;DHT22;62025;39.238;9.126;2023-07-13T13:43:42;32.70;61.50
63047;DHT22;62025;39.238;9.126;2023-07-13T13:46:21;32.70;61.10
63047;DHT22;62025;39.238;9.126;2023-07-13T13:48:50;32.80;61.40
63047;DHT22;62025;39.238;9.126;2023-07-13T13:51:18;32.80;60.30
63047;DHT22;62025;39.238;9.126;2023-07-13T13:53:46;32.70;60.00
63047;DHT22;62025;39.238;9.126;2023-07-13T13:56:14;32.70;58.20
63047;DHT22;62025;39.238;9.126;2023-07-13T13:58:40;32.70;58.70
63047;DHT22;62025;39.238;9.126;2023-07-13T14:01:30;32.70;59.80
63047;DHT22;62025;39.238;9.126;2023-07-13T14:03:56;32.80;60.90
63047;DHT22;62025;39.238;9.126;2023-07-13T14:06:22;32.70;62.20
63047;DHT22;62025;39.238;9.126;2023-07-13T14:08:49;32.80;62.70
63047;DHT22;62025;39.238;9.126;2023-07-13T14:11:17;32.90;62.30
63047;DHT22;62025;39.238;9.126;2023-07-13T14:13:53;32.90;61.30
63047;DHT22;62025;39.238;9.126;2023-07-13T14:16:23;32.90;61.60
63047;DHT22;62025;39.238;9.126;2023-07-13T14:18:53;32.70;62.60
63047;DHT22;62025;39.238;9.126;2023-07-13T14:21:22;32.70;63.50
63047;DHT22;62025;39.238;9.126;2023-07-13T14:23:48;32.70;61.60
63047;DHT22;62025;39.238;9.126;2023-07-13T14:26:20;32.70;60.00
63047;DHT22;62025;39.238;9.126;2023-07-13T14:28:53;32.90;57.90
63047;DHT22;62025;39.238;9.126;2023-07-13T14:31:22;32.90;57.20
63047;DHT22;62025;39.238;9.126;2023-07-13T14:33:49;32.90;56.40
63047;DHT22;62025;39.238;9.126;2023-07-13T14:36:32;33.00;55.70
63047;DHT22;62025;39.238;9.126;2023-07-13T14:39:09;33.40;56.90
63047;DHT22;62025;39.238;9.126;2023-07-13T14:41:37;33.20;55.90
63047;DHT22;62025;39.238;9.126;2023-07-13T14:44:17;33.30;56.30
63047;DHT22;62025;39.238;9.126;2023-07-13T14:46:46;33.40;54.10
63047;DHT22;62025;39.238;9.126;2023-07-13T14:49:32;33.40;53.80
63047;DHT22;62025;39.238;9.126;2023-07-13T14:52:18;33.70;54.40
63047;DHT22;62025;39.238;9.126;2023-07-13T14:54:46;33.70;55.10
63047;DHT22;62025;39.238;9.126;2023-07-13T14:57:14;33.60;55.60
63047;DHT22;62025;39.238;9.126;2023-07-13T14:59:45;33.60;55.90
63047;DHT22;62025;39.238;9.126;2023-07-13T15:02:28;33.70;54.80
63047;DHT22;62025;39.238;9.126;2023-07-13T15:05:01;33.70;55.60
63047;DHT22;62025;39.238;9.126;2023-07-13T15:07:30;33.60;55.80
63047;DHT22;62025;39.238;9.126;2023-07-13T15:09:56;33.60;55.80
63047;DHT22;62025;39.238;9.126;2023-07-13T15:12:22;33.60;56.60
63047;DHT22;62025;39.238;9.126;2023-07-13T15:14:48;33.70;56.90
63047;DHT22;62025;39.238;9.126;2023-07-13T15:17:42;33.70;57.50
63047;DHT22;62025;39.238;9.126;2023-07-13T15:22:48;34.00;58.30
63047;DHT22;62025;39.238;9.126;2023-07-13T15:25:25;34.00;59.00
63047;DHT22;62025;39.238;9.126;2023-07-13T15:27:53;34.00;58.50
63047;DHT22;62025;39.238;9.126;2023-07-13T15:30:20;34.00;57.20
63047;DHT22;62025;39.238;9.126;2023-07-13T15:32:48;34.10;56.80
63047;DHT22;62025;39.238;9.126;2023-07-13T15:35:19;34.10;52.10
63047;DHT22;62025;39.238;9.126;2023-07-13T15:37:47;34.50;48.70
63047;DHT22;62025;39.238;9.126;2023-07-13T15:40:14;34.60;46.40
63047;DHT22;62025;39.238;9.126;2023-07-13T15:42:44;34.70;45.80
63047;DHT22;62025;39.238;9.126;2023-07-13T15:45:19;34.60;45.20
63047;DHT22;62025;39.238;9.126;2023-07-13T15:47:48;34.50;45.20
63047;DHT22;62025;39.238;9.126;2023-07-13T15:50:17;34.60;44.50
63047;DHT22;62025;39.238;9.126;2023-07-13T15:52:48;34.80;43.60
63047;DHT22;62025;39.238;9.126;2023-07-13T15:55:18;34.70;43.60
63047;DHT22;62025;39.238;9.126;2023-07-13T15:57:49;34.50;43.60
63047;DHT22;62025;39.238;9.126;2023-07-13T16:00:25;34.50;43.20
63047;DHT22;62025;39.238;9.126;2023-07-13T16:02:53;34.50;42.70
63047;DHT22;62025;39.238;9.126;2023-07-13T16:05:21;34.70;42.60
63047;DHT22;62025;39.238;9.126;2023-07-13T16:07:49;34.60;42.50
63047;DHT22;62025;39.238;9.126;2023-07-13T16:10:17;34.70;41.90
63047;DHT22;62025;39.238;9.126;2023-07-13T16:12:46;34.60;41.70
63047;DHT22;62025;39.238;9.126;2023-07-13T16:15:18;34.70;41.60
63047;DHT22;62025;39.238;9.126;2023-07-13T16:17:48;34.70;41.60
63047;DHT22;62025;39.238;9.126;2023-07-13T16:20:15;34.70;42.80
63047;DHT22;62025;39.238;9.126;2023-07-13T16:22:45;34.60;42.90
63047;DHT22;62025;39.238;9.126;2023-07-13T16:25:18;34.60;42.40
63047;DHT22;62025;39.238;9.126;2023-07-13T16:27:46;34.60;42.10